TTPP/POS METAR and TAF weather

Enter ICAO airport designator
Station Type Date Time Source
TTPP METAR 2022/01/26 14:00 UTC NOAA

TTPP 261400Z 14008KT 9999 SCT020 29/21 Q1015 NOSIG


Station Type Date Time Source
TTPP Decoded METAR 2022/01/26 14:00 UTC NOAA

Piarco International Airport, Trinidad, Trinidad and Tobago (TTPP) 10-37N 061-21W 15M
Jan 26, 2022 - 09:00 AM EST / 2022.01.26 1400 UTC
Wind: from the SE (140 degrees) at 9 MPH (8 KT):0
Visibility: greater than 7 mile(s):0
Sky conditions: partly cloudy
Temperature: 84 F (29 C)
Dew Point: 69 F (21 C)
Relative Humidity: 62%
Pressure (altimeter): 29.97 in. Hg (1015 hPa)
ob: TTPP 261400Z 14008KT 9999 SCT020 29/21 Q1015 NOSIG
cycle: 14

Station Type Date Time Source
TTPP TAF 2022/01/26 12:28 UTC NOAA

TAF TTPP 261000Z 2612/2712 12012KT 9999 SCT018 SCT038
BECMG 2623/2701 00000KT FEW016

Example: see airport list